Norwegian Jade — C6WK7 — position and weather

sailwx.info

Track history (hours):
 
Tides and Currents Weather Stations Pressure Air Temp Water Temp Dewpoint Dewpoint Depression Visibility Wind Speed Wind Dir Waves Ship Positions

Norwegian Jade

Last reported at 2018-Aug-14 19:00 UTC. Time now 2018-Aug-14 19:29 UTC.
Position N 62°25' E 006°25'.

Length 294 m; draft 8.5 m.

Type: Passenger vessel. MMSI: 308416000.

Date/timePositionNaut miles runAvg speedWind from/ knotsBaromVisibWave heightAir tempDewpointWater temp
2018-Aug-14 19:00N 62°25' E 006°25'817.1
2018-Aug-14 18:30N 62°27' E 006°42'714.6
2018-Aug-14 18:00N 62°24' E 006°56'714.1
2018-Aug-14 17:30N 62°17' E 007°01'714.0
2018-Aug-14 17:00N 62°10' E 007°01'5 9.3
2018-Aug-14 16:30N 62°06' E 007°03'4 7.4
2018-Aug-14 16:00N 62°07' E 007°11'0 0.2
2018-Aug-14 15:30N 62°07' E 007°11'0 0.7
2018-Aug-14 15:00N 62°07' E 007°10'0 0.0
2018-Aug-14 14:29N 62°07' E 007°10'0 0.0
2018-Aug-14 13:59N 62°07' E 007°10'0 0.0
2018-Aug-14 13:29N 62°07' E 007°10'0 0.0
2018-Aug-14 12:59N 62°07' E 007°10'0 0.0
2018-Aug-14 12:29N 62°07' E 007°10'0 0.0
2018-Aug-14 11:59N 62°07' E 007°10'0 0.0
2018-Aug-14 11:29N 62°07' E 007°10'0 0.0
2018-Aug-14 10:59N 62°07' E 007°10'0 0.0
2018-Aug-14 10:29N 62°07' E 007°10'0 0.0
2018-Aug-14 09:59N 62°07' E 007°10'0 0.0
2018-Aug-14 09:29N 62°07' E 007°10'0 0.0
2018-Aug-14 08:59N 62°07' E 007°10'0 0.0
2018-Aug-14 08:29N 62°07' E 007°10'0 0.0
2018-Aug-14 07:59N 62°07' E 007°10'0 0.0
2018-Aug-14 07:30N 62°07' E 007°10'5 9.0
2018-Aug-14 06:59N 62°06' E 007°01'3 1.2
2018-Aug-14 04:39N 62°07' E 006°56'213.6
2018-Aug-14 04:30N 62°08' E 006°58'612.8
2018-Aug-14 04:00N 62°14' E 007°01'713.1
2018-Aug-14 03:30N 62°21' E 006°56'711.9
2018-Aug-14 02:55N 62°27' E 006°50'612.9
2018-Aug-14 02:29N 62°27' E 006°37'713.6
2018-Aug-14 02:00N 62°24' E 006°24'713.4
2018-Aug-14 01:30N 62°23' E 006°10'612.1
2018-Aug-14 01:00N 62°27' E 005°60'713.0
2018-Aug-14 00:30N 62°29' E 005°46'815.3
2018-Aug-13 23:59N 62°30' E 005°29'715.2
2018-Aug-13 23:30N 62°28' E 005°14'817.1
2018-Aug-13 23:00N 62°22' E 005°02'1121.3
2018-Aug-13 22:30N 62°14' E 004°46'1122.5
2018-Aug-13 22:00N 62°06' E 004°28'19722.0
2018-Aug-13 13:02N 58°49' E 004°21'121.3
2018-Aug-13 12:58N 58°47' E 004°21'1321.7
2018-Aug-13 12:23N 58°36' E 004°30'28520.6
2018-Aug-12 22:35N 54°11' E 007°40'115.9
2018-Aug-12 22:30N 54°10' E 007°41'815.9
2018-Aug-12 21:59N 54°05' E 007°52'815.7
2018-Aug-12 21:30N 54°02' E 008°04'612.3
2018-Aug-12 21:00N 54°00' E 008°14'713.5
2018-Aug-12 20:30N 53°59' E 008°26'815.9
2018-Aug-12 20:00N 53°57' E 008°38'815.3
2018-Aug-12 19:30N 53°51' E 008°46'917.1
2018-Aug-12 19:00N 53°51' E 009°01'713.7
2018-Aug-12 18:30N 53°53' E 009°12'815.7
2018-Aug-12 18:00N 53°48' E 009°23'714.7
2018-Aug-12 17:31N 53°42' E 009°30'713.1
2018-Aug-12 17:01N 53°36' E 009°35'611.8
2018-Aug-12 16:31N 53°34' E 009°44'510.1
2018-Aug-12 16:01N 53°33' E 009°52'3 5.4
2018-Aug-12 15:31N 53°32' E 009°57'0 0.4
2018-Aug-12 14:59N 53°33' E 009°56'0 0.0
2018-Aug-12 14:29N 53°33' E 009°56'0 0.0
2018-Aug-12 13:56N 53°33' E 009°56'0 0.0
2018-Aug-12 13:26N 53°33' E 009°56'0 0.0
2018-Aug-12 12:59N 53°33' E 009°56'0 0.0
2018-Aug-12 12:26N 53°33' E 009°56'0 0.0
2018-Aug-12 11:59N 53°33' E 009°56'0 0.0
2018-Aug-12 11:29N 53°33' E 009°56'0 0.0
2018-Aug-12 10:59N 53°33' E 009°56'0 0.0
2018-Aug-12 10:29N 53°33' E 009°56'0 0.0
2018-Aug-12 09:59N 53°33' E 009°56'0 0.0
2018-Aug-12 09:29N 53°33' E 009°56'0 0.0
2018-Aug-12 08:59N 53°33' E 009°56'0 0.0
2018-Aug-12 08:29N 53°33' E 009°56'0 0.0
2018-Aug-12 07:59N 53°33' E 009°56'0 0.0
2018-Aug-12 07:29N 53°33' E 009°56'0 0.0
2018-Aug-12 06:59N 53°33' E 009°56'0 0.0
2018-Aug-12 06:29N 53°33' E 009°56'0 0.0
2018-Aug-12 05:59N 53°33' E 009°56'0 0.0
2018-Aug-12 05:29N 53°33' E 009°56'0 0.0
2018-Aug-12 04:59N 53°33' E 009°56'0 0.0
2018-Aug-12 04:29N 53°33' E 009°56'0 0.0
2018-Aug-12 03:59N 53°33' E 009°56'0 0.0
2018-Aug-12 03:29N 53°33' E 009°56'0 0.0
2018-Aug-12 03:00N 53°33' E 009°56'3 5.8
2018-Aug-12 02:30N 53°33' E 009°52'5 9.5
2018-Aug-12 02:00N 53°34' E 009°44'611.2
2018-Aug-12 01:30N 53°36' E 009°35'611.5
2018-Aug-12 01:00N 53°41' E 009°30'611.8
2018-Aug-12 00:30N 53°46' E 009°24'713.1
2018-Aug-12 00:00N 53°51' E 009°19'611.8
2018-Aug-11 23:30N 53°53' E 009°09'713.3
2018-Aug-11 23:00N 53°51' E 008°58'816.1
2018-Aug-11 22:30N 53°52' E 008°44'815.6
2018-Aug-11 22:00N 53°58' E 008°36'917.6
2018-Aug-11 21:30N 53°59' E 008°21'612.6
2018-Aug-11 21:00N 53°60' E 008°10'612.4
2018-Aug-11 20:30N 54°01' E 007°60'612.7
2018-Aug-11 20:00N 54°04' E 007°50'612.4
2018-Aug-11 19:30N 54°07' E 007°41'27216.3
2018-Aug-11 02:52N 58°18' E 004°33'718.0
2018-Aug-11 02:30N 58°25' E 004°29'918.0
2018-Aug-11 02:00N 58°33' E 004°23'12517.5
2018-Aug-10 18:50N 60°38' E 004°21'616.3
2018-Aug-10 18:30N 60°42' E 004°29'714.4
2018-Aug-10 18:00N 60°44' E 004°43'612.5
2018-Aug-10 17:30N 60°40' E 004°51'918.8
2018-Aug-10 17:00N 60°31' E 004°58'715.4
2018-Aug-10 16:30N 60°24' E 005°06'510.1
2018-Aug-10 16:00N 60°24' E 005°17'1 1.7
2018-Aug-10 15:25N 60°23' E 005°18'0 0.0
2018-Aug-10 14:55N 60°23' E 005°18'0 0.0
2018-Aug-10 14:25N 60°23' E 005°18'0 0.0
2018-Aug-10 13:55N 60°23' E 005°18'0 0.0
2018-Aug-10 13:25N 60°23' E 005°18'0 0.0
2018-Aug-10 12:55N 60°23' E 005°18'0 0.0
2018-Aug-10 12:25N 60°23' E 005°18'0 0.0
2018-Aug-10 11:55N 60°23' E 005°18'0 0.0
2018-Aug-10 11:25N 60°23' E 005°18'0 0.0
2018-Aug-10 10:55N 60°23' E 005°18'0 0.0
2018-Aug-10 10:25N 60°23' E 005°18'0 0.0
2018-Aug-10 09:55N 60°23' E 005°18'0 0.0
2018-Aug-10 09:25N 60°23' E 005°18'0 0.0
2018-Aug-10 08:55N 60°23' E 005°18'0 0.0
2018-Aug-10 08:25N 60°23' E 005°18'0 0.0
2018-Aug-10 07:55N 60°23' E 005°18'0 0.0
2018-Aug-10 07:25N 60°23' E 005°18'0 0.0
2018-Aug-10 06:55N 60°23' E 005°18'0 0.0
2018-Aug-10 06:25N 60°23' E 005°18'0 0.0
2018-Aug-10 05:55N 60°23' E 005°18'0 0.0
2018-Aug-10 05:25N 60°23' E 005°18'0 0.0
2018-Aug-10 04:55N 60°23' E 005°18'0 0.0
2018-Aug-10 04:25N 60°23' E 005°18'0 0.6
2018-Aug-10 04:00N 60°24' E 005°18'4 8.6
2018-Aug-10 03:30N 60°24' E 005°09'714.6
2018-Aug-10 03:00N 60°29' E 004°59'816.7
2018-Aug-10 02:31N 60°37' E 004°53'816.6
2018-Aug-10 02:00N 60°44' E 004°46'816.0
2018-Aug-10 01:30N 60°46' E 004°30'815.2
2018-Aug-10 01:00N 60°53' E 004°23'816.9
2018-Aug-10 00:30N 61°01' E 004°19'1117.6
2018-Aug-09 23:54N 61°12' E 004°16'717.5
2018-Aug-09 23:30N 61°19' E 004°19'917.7
2018-Aug-09 23:01N 61°27' E 004°20'1617.2
2018-Aug-09 22:04N 61°44' E 004°23'117.7
2018-Aug-09 22:00N 61°45' E 004°24'917.4
2018-Aug-09 21:30N 61°52' E 004°33'815.2
2018-Aug-09 21:00N 61°58' E 004°44'715.0
2018-Aug-09 20:30N 61°57' E 004°59'713.8
2018-Aug-09 20:00N 61°54' E 005°12'816.1
2018-Aug-09 19:30N 61°55' E 005°28'816.1
2018-Aug-09 19:00N 61°53' E 005°45'714.9
2018-Aug-09 18:30N 61°52' E 006°00'816.2
2018-Aug-09 18:00N 61°51' E 006°18'714.7
2018-Aug-09 17:30N 61°51' E 006°33'6 0.5
2018-Aug-09 05:32N 61°52' E 006°46'111.3
2018-Aug-09 05:27N 61°52' E 006°44'510.6
2018-Aug-09 04:59N 61°52' E 006°34'5 9.5
2018-Aug-09 04:30N 61°49' E 006°25'511.0
2018-Aug-09 04:00N 61°51' E 006°14'611.1
2018-Aug-09 03:30N 61°51' E 006°02'611.4
2018-Aug-09 03:00N 61°51' E 005°50'611.3
2018-Aug-09 02:30N 61°54' E 005°40'714.9
2018-Aug-09 02:00N 61°55' E 005°24'814.8
2018-Aug-09 01:30N 61°54' E 005°08'713.4
2018-Aug-09 01:00N 61°58' E 004°57'714.4
2018-Aug-09 00:30N 62°03' E 004°45'713.5
2018-Aug-09 00:00N 62°06' E 004°33'612.0
2018-Aug-08 23:30N 62°12' E 004°33'3412.8
2018-Aug-08 20:50N 62°40' E 005°15'514.3
2018-Aug-08 20:29N 62°36' E 005°24'714.4
2018-Aug-08 20:00N 62°32' E 005°36'714.3
2018-Aug-08 19:30N 62°29' E 005°49'713.8
2018-Aug-08 19:00N 62°25' E 006°02'714.4
2018-Aug-08 18:30N 62°23' E 006°17'816.4
2018-Aug-08 18:00N 62°26' E 006°34'714.6
2018-Aug-08 17:30N 62°27' E 006°50'713.6
2018-Aug-08 17:00N 62°21' E 006°56'713.8
2018-Aug-08 16:30N 62°14' E 007°01'714.3
2018-Aug-08 16:00N 62°07' E 006°57'510.4
2018-Aug-08 15:30N 62°07' E 007°08'2 3.7
2018-Aug-08 14:58N 62°06' E 007°12'0 0.0
2018-Aug-08 14:28N 62°06' E 007°12'0 0.0
2018-Aug-08 13:58N 62°06' E 007°12'0 0.0
2018-Aug-08 13:28N 62°06' E 007°12'0 0.0
2018-Aug-08 12:58N 62°06' E 007°12'0 0.0
2018-Aug-08 12:28N 62°06' E 007°12'0 0.0
2018-Aug-08 11:58N 62°06' E 007°12'0 0.0
2018-Aug-08 11:28N 62°06' E 007°12'0 0.0
2018-Aug-08 10:58N 62°06' E 007°12'0 0.0
2018-Aug-08 10:28N 62°06' E 007°12'0 0.0
2018-Aug-08 09:58N 62°06' E 007°12'0 0.0
2018-Aug-08 09:28N 62°06' E 007°12'0 0.0
2018-Aug-08 08:58N 62°06' E 007°12'0 0.0
2018-Aug-08 08:28N 62°06' E 007°12'0 0.1
2018-Aug-08 08:00N 62°06' E 007°12'1 2.3
2018-Aug-08 07:30N 62°07' E 007°10'611.4
2018-Aug-08 07:00N 62°06' E 006°58'3 1.4
2018-Aug-08 05:00N 62°05' E 006°53'3 6.9
2018-Aug-08 04:30N 62°08' E 006°57'713.3
2018-Aug-08 04:00N 62°14' E 007°01'612.9
2018-Aug-08 03:30N 62°20' E 006°56'612.8
2018-Aug-08 03:00N 62°26' E 006°52'713.3
2018-Aug-08 02:30N 62°27' E 006°38'713.7
2018-Aug-08 01:59N 62°24' E 006°24'713.3
2018-Aug-08 01:30N 62°23' E 006°10'612.2
2018-Aug-08 01:00N 62°27' E 005°59'4 8.6
2018-Aug-08 00:30N 62°28' E 005°51'4 8.5
2018-Aug-08 00:01N 62°30' E 005°43'5 8.5
2018-Aug-07 23:29N 62°32' E 005°34'4 8.8
2018-Aug-07 23:00N 62°35' E 005°28'4 8.7
2018-Aug-07 22:30N 62°38' E 005°20'6 7.9
2018-Aug-07 21:44N 62°43' E 005°12'2 7.5
2018-Aug-07 21:30N 62°44' E 005°14'4 8.3
2018-Aug-07 20:59N 62°47' E 005°21'4 7.4
2018-Aug-07 20:25N 62°47' E 005°30'4 8.4
2018-Aug-07 20:00N 62°43' E 005°32'4 8.6
2018-Aug-07 19:30N 62°39' E 005°33'4 8.3
2018-Aug-07 19:00N 62°35' E 005°36'4 8.5
2018-Aug-07 18:30N 62°31' E 005°41'4 8.0
2018-Aug-07 18:00N 62°29' E 005°48'4 7.2
2018-Aug-07 17:31N 62°27' E 005°54'4 7.9
2018-Aug-07 17:00N 62°27' E 006°03'4 7.1
2018-Aug-07 16:30N 62°28' E 006°10'1 1.0
2018-Aug-07 15:59N 62°28' E 006°09'0 0.0
2018-Aug-07 15:29N 62°28' E 006°09'0 0.0
2018-Aug-07 14:59N 62°28' E 006°09'0 0.0
2018-Aug-07 14:29N 62°28' E 006°09'0 0.0
2018-Aug-07 13:59N 62°28' E 006°09'0 0.0
2018-Aug-07 13:29N 62°28' E 006°09'0 0.0
2018-Aug-07 12:59N 62°28' E 006°09'0 0.0
2018-Aug-07 12:29N 62°28' E 006°09'0 0.0
2018-Aug-07 11:59N 62°28' E 006°09'0 0.0
2018-Aug-07 11:29N 62°28' E 006°09'0 0.0
2018-Aug-07 10:59N 62°28' E 006°09'0 0.0
2018-Aug-07 10:29N 62°28' E 006°09'0 0.0
2018-Aug-07 09:59N 62°28' E 006°09'0 0.0
2018-Aug-07 09:29N 62°28' E 006°09'0 0.0
2018-Aug-07 08:59N 62°28' E 006°09'0 0.0
2018-Aug-07 08:29N 62°28' E 006°09'0 0.0
2018-Aug-07 07:59N 62°28' E 006°09'0 0.0
2018-Aug-07 07:29N 62°28' E 006°09'0 0.0
2018-Aug-07 06:59N 62°28' E 006°09'0 0.0
2018-Aug-07 06:29N 62°28' E 006°09'0 0.0
2018-Aug-07 05:59N 62°28' E 006°09'0 0.0
2018-Aug-07 05:29N 62°28' E 006°09'1 2.0
2018-Aug-07 05:00N 62°27' E 006°10'5 9.4
2018-Aug-07 04:30N 62°27' E 006°00'611.5
2018-Aug-07 04:00N 62°29' E 005°48'612.0
2018-Aug-07 03:30N 62°30' E 005°36'714.1
2018-Aug-07 02:59N 62°30' E 005°20'715.2
2018-Aug-07 02:30N 62°25' E 005°08'815.4
2018-Aug-07 02:00N 62°19' E 004°57'815.1
2018-Aug-07 01:30N 62°14' E 004°45'714.9
2018-Aug-07 01:00N 62°09' E 004°34'19717.8
2018-Aug-06 13:55N 58°52' E 004°19'921.8
2018-Aug-06 13:30N 58°43' E 004°25'1121.8
2018-Aug-06 13:00N 58°33' E 004°32'1121.7
2018-Aug-06 12:30N 58°23' E 004°38'25120.4
2018-Aug-06 00:11N 54°28' E 007°20'416.5
2018-Aug-05 23:58N 54°25' E 007°23'816.7
2018-Aug-05 23:30N 54°18' E 007°31'817.0
2018-Aug-05 23:00N 54°11' E 007°39'917.2
2018-Aug-05 22:30N 54°07' E 007°51'917.5
2018-Aug-05 22:00N 54°02' E 008°03'714.6
2018-Aug-05 21:30N 54°00' E 008°16'917.7
2018-Aug-05 21:00N 53°58' E 008°30'816.7
2018-Aug-05 20:30N 53°54' E 008°42'713.7
2018-Aug-05 20:00N 53°50' E 008°52'815.1
2018-Aug-05 19:30N 53°52' E 009°05'5 9.7
2018-Aug-05 19:00N 53°53' E 009°13'611.8
2018-Aug-05 18:30N 53°50' E 009°21'510.9
2018-Aug-05 18:00N 53°45' E 009°25'5 9.1
2018-Aug-05 17:30N 53°41' E 009°30'4 8.8
2018-Aug-05 17:00N 53°37' E 009°33'5 9.6
2018-Aug-05 16:30N 53°34' E 009°39'4 9.0
2018-Aug-05 16:00N 53°34' E 009°46'4 8.9
2018-Aug-05 15:30N 53°33' E 009°54'2 4.5
2018-Aug-05 14:58N 53°32' E 009°58'0 0.0
2018-Aug-05 14:28N 53°32' E 009°58'0 0.0
2018-Aug-05 13:25N 53°32' E 009°58'0 0.0
2018-Aug-05 12:58N 53°32' E 009°58'0 0.0
2018-Aug-05 12:28N 53°32' E 009°58'0 0.0
2018-Aug-05 11:58N 53°32' E 009°58'0 0.0
2018-Aug-05 11:28N 53°32' E 009°58'0 0.0
2018-Aug-05 10:58N 53°32' E 009°58'0 0.0
2018-Aug-05 10:28N 53°32' E 009°58'0 0.0
2018-Aug-05 09:58N 53°32' E 009°58'0 0.0
2018-Aug-05 09:28N 53°32' E 009°58'0 0.0
2018-Aug-05 08:58N 53°32' E 009°58'0 0.0
2018-Aug-05 08:28N 53°32' E 009°58'0 0.0
2018-Aug-05 07:58N 53°32' E 009°58'0 0.0
2018-Aug-05 07:28N 53°32' E 009°58'0 0.0
2018-Aug-05 06:58N 53°32' E 009°58'0 0.0
2018-Aug-05 06:28N 53°32' E 009°58'0 0.0
2018-Aug-05 05:58N 53°32' E 009°58'0 0.0
2018-Aug-05 05:28N 53°32' E 009°58'0 0.0
2018-Aug-05 04:58N 53°32' E 009°58'0 0.0
2018-Aug-05 04:28N 53°32' E 009°58'0 0.0
2018-Aug-05 03:59N 53°32' E 009°58'1 1.7
2018-Aug-05 03:30N 53°33' E 009°57'3 6.9
2018-Aug-05 03:01N 53°33' E 009°51'5 9.7
2018-Aug-05 02:30N 53°34' E 009°43'611.1
2018-Aug-05 02:00N 53°36' E 009°35'611.1
2018-Aug-05 01:30N 53°41' E 009°30'511.0
2018-Aug-05 01:00N 53°45' E 009°24'612.6
2018-Aug-05 00:30N 53°51' E 009°19'612.3
2018-Aug-05 00:00N 53°53' E 009°09'510.2
2018-Aug-04 23:30N 53°51' E 009°01'612.6
2018-Aug-04 23:00N 53°50' E 008°50'611.8
2018-Aug-04 22:30N 53°54' E 008°42'714.4
2018-Aug-04 22:00N 53°58' E 008°32'917.1
2018-Aug-04 21:30N 53°60' E 008°18'612.7
2018-Aug-04 21:01N 53°60' E 008°07'815.5
2018-Aug-04 20:30N 54°02' E 007°55'816.2
2018-Aug-04 20:00N 54°07' E 007°43'815.9
2018-Aug-04 19:31N 54°12' E 007°34'816.3
2018-Aug-04 19:00N 54°19' E 007°26'  
Track history (hours):
 
Tides and Currents Weather Stations Pressure Air Temp Water Temp Dewpoint Dewpoint Depression Visibility Wind Speed Wind Dir Waves Ship Positions

Norwegian Jade

Last reported at 2018-Aug-14 19:00 UTC. Time now 2018-Aug-14 19:29 UTC.
Position N 62°25' E 006°25'.

Length 294 m; draft 8.5 m.

Type: Passenger vessel. MMSI: 308416000.

Date/timePositionNaut miles runAvg speedWind from/ knotsBaromVisibWave heightAir tempDewpointWater temp
2018-Aug-14 19:00N 62°25' E 006°25'817.1
2018-Aug-14 18:30N 62°27' E 006°42'714.6
2018-Aug-14 18:00N 62°24' E 006°56'714.1
2018-Aug-14 17:30N 62°17' E 007°01'714.0
2018-Aug-14 17:00N 62°10' E 007°01'5 9.3
2018-Aug-14 16:30N 62°06' E 007°03'4 7.4
2018-Aug-14 16:00N 62°07' E 007°11'0 0.2
2018-Aug-14 15:30N 62°07' E 007°11'0 0.7
2018-Aug-14 15:00N 62°07' E 007°10'0 0.0
2018-Aug-14 14:29N 62°07' E 007°10'0 0.0
2018-Aug-14 13:59N 62°07' E 007°10'0 0.0
2018-Aug-14 13:29N 62°07' E 007°10'0 0.0
2018-Aug-14 12:59N 62°07' E 007°10'0 0.0
2018-Aug-14 12:29N 62°07' E 007°10'0 0.0
2018-Aug-14 11:59N 62°07' E 007°10'0 0.0
2018-Aug-14 11:29N 62°07' E 007°10'0 0.0
2018-Aug-14 10:59N 62°07' E 007°10'0 0.0
2018-Aug-14 10:29N 62°07' E 007°10'0 0.0
2018-Aug-14 09:59N 62°07' E 007°10'0 0.0
2018-Aug-14 09:29N 62°07' E 007°10'0 0.0
2018-Aug-14 08:59N 62°07' E 007°10'0 0.0
2018-Aug-14 08:29N 62°07' E 007°10'0 0.0
2018-Aug-14 07:59N 62°07' E 007°10'0 0.0
2018-Aug-14 07:30N 62°07' E 007°10'5 9.0
2018-Aug-14 06:59N 62°06' E 007°01'3 1.2
2018-Aug-14 04:39N 62°07' E 006°56'213.6
2018-Aug-14 04:30N 62°08' E 006°58'612.8
2018-Aug-14 04:00N 62°14' E 007°01'713.1
2018-Aug-14 03:30N 62°21' E 006°56'711.9
2018-Aug-14 02:55N 62°27' E 006°50'612.9
2018-Aug-14 02:29N 62°27' E 006°37'713.6
2018-Aug-14 02:00N 62°24' E 006°24'713.4
2018-Aug-14 01:30N 62°23' E 006°10'612.1
2018-Aug-14 01:00N 62°27' E 005°60'713.0
2018-Aug-14 00:30N 62°29' E 005°46'815.3
2018-Aug-13 23:59N 62°30' E 005°29'715.2
2018-Aug-13 23:30N 62°28' E 005°14'817.1
2018-Aug-13 23:00N 62°22' E 005°02'1121.3
2018-Aug-13 22:30N 62°14' E 004°46'1122.5
2018-Aug-13 22:00N 62°06' E 004°28'19722.0
2018-Aug-13 13:02N 58°49' E 004°21'121.3
2018-Aug-13 12:58N 58°47' E 004°21'1321.7
2018-Aug-13 12:23N 58°36' E 004°30'28520.6
2018-Aug-12 22:35N 54°11' E 007°40'115.9
2018-Aug-12 22:30N 54°10' E 007°41'815.9
2018-Aug-12 21:59N 54°05' E 007°52'815.7
2018-Aug-12 21:30N 54°02' E 008°04'612.3
2018-Aug-12 21:00N 54°00' E 008°14'713.5
2018-Aug-12 20:30N 53°59' E 008°26'815.9
2018-Aug-12 20:00N 53°57' E 008°38'815.3
2018-Aug-12 19:30N 53°51' E 008°46'917.1
2018-Aug-12 19:00N 53°51' E 009°01'713.7
2018-Aug-12 18:30N 53°53' E 009°12'815.7
2018-Aug-12 18:00N 53°48' E 009°23'714.7
2018-Aug-12 17:31N 53°42' E 009°30'713.1
2018-Aug-12 17:01N 53°36' E 009°35'611.8
2018-Aug-12 16:31N 53°34' E 009°44'510.1
2018-Aug-12 16:01N 53°33' E 009°52'3 5.4
2018-Aug-12 15:31N 53°32' E 009°57'0 0.4
2018-Aug-12 14:59N 53°33' E 009°56'0 0.0
2018-Aug-12 14:29N 53°33' E 009°56'0 0.0
2018-Aug-12 13:56N 53°33' E 009°56'0 0.0
2018-Aug-12 13:26N 53°33' E 009°56'0 0.0
2018-Aug-12 12:59N 53°33' E 009°56'0 0.0
2018-Aug-12 12:26N 53°33' E 009°56'0 0.0
2018-Aug-12 11:59N 53°33' E 009°56'0 0.0
2018-Aug-12 11:29N 53°33' E 009°56'0 0.0
2018-Aug-12 10:59N 53°33' E 009°56'0 0.0
2018-Aug-12 10:29N 53°33' E 009°56'0 0.0
2018-Aug-12 09:59N 53°33' E 009°56'0 0.0
2018-Aug-12 09:29N 53°33' E 009°56'0 0.0
2018-Aug-12 08:59N 53°33' E 009°56'0 0.0
2018-Aug-12 08:29N 53°33' E 009°56'0 0.0
2018-Aug-12 07:59N 53°33' E 009°56'0 0.0
2018-Aug-12 07:29N 53°33' E 009°56'0 0.0
2018-Aug-12 06:59N 53°33' E 009°56'0 0.0
2018-Aug-12 06:29N 53°33' E 009°56'0 0.0
2018-Aug-12 05:59N 53°33' E 009°56'0 0.0
2018-Aug-12 05:29N 53°33' E 009°56'0 0.0
2018-Aug-12 04:59N 53°33' E 009°56'0 0.0
2018-Aug-12 04:29N 53°33' E 009°56'0 0.0
2018-Aug-12 03:59N 53°33' E 009°56'0 0.0
2018-Aug-12 03:29N 53°33' E 009°56'0 0.0
2018-Aug-12 03:00N 53°33' E 009°56'3 5.8
2018-Aug-12 02:30N 53°33' E 009°52'5 9.5
2018-Aug-12 02:00N 53°34' E 009°44'611.2
2018-Aug-12 01:30N 53°36' E 009°35'611.5
2018-Aug-12 01:00N 53°41' E 009°30'611.8
2018-Aug-12 00:30N 53°46' E 009°24'713.1
2018-Aug-12 00:00N 53°51' E 009°19'611.8
2018-Aug-11 23:30N 53°53' E 009°09'713.3
2018-Aug-11 23:00N 53°51' E 008°58'816.1
2018-Aug-11 22:30N 53°52' E 008°44'815.6
2018-Aug-11 22:00N 53°58' E 008°36'917.6
2018-Aug-11 21:30N 53°59' E 008°21'612.6
2018-Aug-11 21:00N 53°60' E 008°10'612.4
2018-Aug-11 20:30N 54°01' E 007°60'612.7
2018-Aug-11 20:00N 54°04' E 007°50'612.4
2018-Aug-11 19:30N 54°07' E 007°41'27216.3
2018-Aug-11 02:52N 58°18' E 004°33'718.0
2018-Aug-11 02:30N 58°25' E 004°29'918.0
2018-Aug-11 02:00N 58°33' E 004°23'12517.5
2018-Aug-10 18:50N 60°38' E 004°21'616.3
2018-Aug-10 18:30N 60°42' E 004°29'714.4
2018-Aug-10 18:00N 60°44' E 004°43'612.5
2018-Aug-10 17:30N 60°40' E 004°51'918.8
2018-Aug-10 17:00N 60°31' E 004°58'715.4
2018-Aug-10 16:30N 60°24' E 005°06'510.1
2018-Aug-10 16:00N 60°24' E 005°17'1 1.7
2018-Aug-10 15:25N 60°23' E 005°18'0 0.0
2018-Aug-10 14:55N 60°23' E 005°18'0 0.0
2018-Aug-10 14:25N 60°23' E 005°18'0 0.0
2018-Aug-10 13:55N 60°23' E 005°18'0 0.0
2018-Aug-10 13:25N 60°23' E 005°18'0 0.0
2018-Aug-10 12:55N 60°23' E 005°18'0 0.0
2018-Aug-10 12:25N 60°23' E 005°18'0 0.0
2018-Aug-10 11:55N 60°23' E 005°18'0 0.0
2018-Aug-10 11:25N 60°23' E 005°18'0 0.0
2018-Aug-10 10:55N 60°23' E 005°18'0 0.0
2018-Aug-10 10:25N 60°23' E 005°18'0 0.0
2018-Aug-10 09:55N 60°23' E 005°18'0 0.0
2018-Aug-10 09:25N 60°23' E 005°18'0 0.0
2018-Aug-10 08:55N 60°23' E 005°18'0 0.0
2018-Aug-10 08:25N 60°23' E 005°18'0 0.0
2018-Aug-10 07:55N 60°23' E 005°18'0 0.0
2018-Aug-10 07:25N 60°23' E 005°18'0 0.0
2018-Aug-10 06:55N 60°23' E 005°18'0 0.0
2018-Aug-10 06:25N 60°23' E 005°18'0 0.0
2018-Aug-10 05:55N 60°23' E 005°18'0 0.0
2018-Aug-10 05:25N 60°23' E 005°18'0 0.0
2018-Aug-10 04:55N 60°23' E 005°18'0 0.0
2018-Aug-10 04:25N 60°23' E 005°18'0 0.6
2018-Aug-10 04:00N 60°24' E 005°18'4 8.6
2018-Aug-10 03:30N 60°24' E 005°09'714.6
2018-Aug-10 03:00N 60°29' E 004°59'816.7
2018-Aug-10 02:31N 60°37' E 004°53'816.6
2018-Aug-10 02:00N 60°44' E 004°46'816.0
2018-Aug-10 01:30N 60°46' E 004°30'815.2
2018-Aug-10 01:00N 60°53' E 004°23'816.9
2018-Aug-10 00:30N 61°01' E 004°19'1117.6
2018-Aug-09 23:54N 61°12' E 004°16'717.5
2018-Aug-09 23:30N 61°19' E 004°19'917.7
2018-Aug-09 23:01N 61°27' E 004°20'1617.2
2018-Aug-09 22:04N 61°44' E 004°23'117.7
2018-Aug-09 22:00N 61°45' E 004°24'917.4
2018-Aug-09 21:30N 61°52' E 004°33'815.2
2018-Aug-09 21:00N 61°58' E 004°44'715.0
2018-Aug-09 20:30N 61°57' E 004°59'713.8
2018-Aug-09 20:00N 61°54' E 005°12'816.1
2018-Aug-09 19:30N 61°55' E 005°28'816.1
2018-Aug-09 19:00N 61°53' E 005°45'714.9
2018-Aug-09 18:30N 61°52' E 006°00'816.2
2018-Aug-09 18:00N 61°51' E 006°18'714.7
2018-Aug-09 17:30N 61°51' E 006°33'6 0.5
2018-Aug-09 05:32N 61°52' E 006°46'111.3
2018-Aug-09 05:27N 61°52' E 006°44'510.6
2018-Aug-09 04:59N 61°52' E 006°34'5 9.5
2018-Aug-09 04:30N 61°49' E 006°25'511.0
2018-Aug-09 04:00N 61°51' E 006°14'611.1
2018-Aug-09 03:30N 61°51' E 006°02'611.4
2018-Aug-09 03:00N 61°51' E 005°50'611.3
2018-Aug-09 02:30N 61°54' E 005°40'714.9
2018-Aug-09 02:00N 61°55' E 005°24'814.8
2018-Aug-09 01:30N 61°54' E 005°08'713.4
2018-Aug-09 01:00N 61°58' E 004°57'714.4
2018-Aug-09 00:30N 62°03' E 004°45'713.5
2018-Aug-09 00:00N 62°06' E 004°33'612.0
2018-Aug-08 23:30N 62°12' E 004°33'3412.8
2018-Aug-08 20:50N 62°40' E 005°15'514.3
2018-Aug-08 20:29N 62°36' E 005°24'714.4
2018-Aug-08 20:00N 62°32' E 005°36'714.3
2018-Aug-08 19:30N 62°29' E 005°49'713.8
2018-Aug-08 19:00N 62°25' E 006°02'714.4
2018-Aug-08 18:30N 62°23' E 006°17'816.4
2018-Aug-08 18:00N 62°26' E 006°34'714.6
2018-Aug-08 17:30N 62°27' E 006°50'713.6
2018-Aug-08 17:00N 62°21' E 006°56'713.8
2018-Aug-08 16:30N 62°14' E 007°01'714.3
2018-Aug-08 16:00N 62°07' E 006°57'510.4
2018-Aug-08 15:30N 62°07' E 007°08'2 3.7
2018-Aug-08 14:58N 62°06' E 007°12'0 0.0
2018-Aug-08 14:28N 62°06' E 007°12'0 0.0
2018-Aug-08 13:58N 62°06' E 007°12'0 0.0
2018-Aug-08 13:28N 62°06' E 007°12'0 0.0
2018-Aug-08 12:58N 62°06' E 007°12'0 0.0
2018-Aug-08 12:28N 62°06' E 007°12'0 0.0
2018-Aug-08 11:58N 62°06' E 007°12'0 0.0
2018-Aug-08 11:28N 62°06' E 007°12'0 0.0
2018-Aug-08 10:58N 62°06' E 007°12'0 0.0
2018-Aug-08 10:28N 62°06' E 007°12'0 0.0
2018-Aug-08 09:58N 62°06' E 007°12'0 0.0
2018-Aug-08 09:28N 62°06' E 007°12'0 0.0
2018-Aug-08 08:58N 62°06' E 007°12'0 0.0
2018-Aug-08 08:28N 62°06' E 007°12'0 0.1
2018-Aug-08 08:00N 62°06' E 007°12'1 2.3
2018-Aug-08 07:30N 62°07' E 007°10'611.4
2018-Aug-08 07:00N 62°06' E 006°58'3 1.4
2018-Aug-08 05:00N 62°05' E 006°53'3 6.9
2018-Aug-08 04:30N 62°08' E 006°57'713.3
2018-Aug-08 04:00N 62°14' E 007°01'612.9
2018-Aug-08 03:30N 62°20' E 006°56'612.8
2018-Aug-08 03:00N 62°26' E 006°52'713.3
2018-Aug-08 02:30N 62°27' E 006°38'713.7
2018-Aug-08 01:59N 62°24' E 006°24'713.3
2018-Aug-08 01:30N 62°23' E 006°10'612.2
2018-Aug-08 01:00N 62°27' E 005°59'4 8.6
2018-Aug-08 00:30N 62°28' E 005°51'4 8.5
2018-Aug-08 00:01N 62°30' E 005°43'5 8.5
2018-Aug-07 23:29N 62°32' E 005°34'4 8.8
2018-Aug-07 23:00N 62°35' E 005°28'4 8.7
2018-Aug-07 22:30N 62°38' E 005°20'6 7.9
2018-Aug-07 21:44N 62°43' E 005°12'2 7.5
2018-Aug-07 21:30N 62°44' E 005°14'4 8.3
2018-Aug-07 20:59N 62°47' E 005°21'4 7.4
2018-Aug-07 20:25N 62°47' E 005°30'4 8.4
2018-Aug-07 20:00N 62°43' E 005°32'4 8.6
2018-Aug-07 19:30N 62°39' E 005°33'4 8.3
2018-Aug-07 19:00N 62°35' E 005°36'4 8.5
2018-Aug-07 18:30N 62°31' E 005°41'4 8.0
2018-Aug-07 18:00N 62°29' E 005°48'4 7.2
2018-Aug-07 17:31N 62°27' E 005°54'4 7.9
2018-Aug-07 17:00N 62°27' E 006°03'4 7.1
2018-Aug-07 16:30N 62°28' E 006°10'1 1.0
2018-Aug-07 15:59N 62°28' E 006°09'0 0.0
2018-Aug-07 15:29N 62°28' E 006°09'0 0.0
2018-Aug-07 14:59N 62°28' E 006°09'0 0.0
2018-Aug-07 14:29N 62°28' E 006°09'0 0.0
2018-Aug-07 13:59N 62°28' E 006°09'0 0.0
2018-Aug-07 13:29N 62°28' E 006°09'0 0.0
2018-Aug-07 12:59N 62°28' E 006°09'0 0.0
2018-Aug-07 12:29N 62°28' E 006°09'0 0.0
2018-Aug-07 11:59N 62°28' E 006°09'0 0.0
2018-Aug-07 11:29N 62°28' E 006°09'0 0.0
2018-Aug-07 10:59N 62°28' E 006°09'0 0.0
2018-Aug-07 10:29N 62°28' E 006°09'0 0.0
2018-Aug-07 09:59N 62°28' E 006°09'0 0.0
2018-Aug-07 09:29N 62°28' E 006°09'0 0.0
2018-Aug-07 08:59N 62°28' E 006°09'0 0.0
2018-Aug-07 08:29N 62°28' E 006°09'0 0.0
2018-Aug-07 07:59N 62°28' E 006°09'0 0.0
2018-Aug-07 07:29N 62°28' E 006°09'0 0.0
2018-Aug-07 06:59N 62°28' E 006°09'0 0.0
2018-Aug-07 06:29N 62°28' E 006°09'0 0.0
2018-Aug-07 05:59N 62°28' E 006°09'0 0.0
2018-Aug-07 05:29N 62°28' E 006°09'1 2.0
2018-Aug-07 05:00N 62°27' E 006°10'5 9.4
2018-Aug-07 04:30N 62°27' E 006°00'611.5
2018-Aug-07 04:00N 62°29' E 005°48'612.0
2018-Aug-07 03:30N 62°30' E 005°36'714.1
2018-Aug-07 02:59N 62°30' E 005°20'715.2
2018-Aug-07 02:30N 62°25' E 005°08'815.4
2018-Aug-07 02:00N 62°19' E 004°57'815.1
2018-Aug-07 01:30N 62°14' E 004°45'714.9
2018-Aug-07 01:00N 62°09' E 004°34'19717.8
2018-Aug-06 13:55N 58°52' E 004°19'921.8
2018-Aug-06 13:30N 58°43' E 004°25'1121.8
2018-Aug-06 13:00N 58°33' E 004°32'1121.7
2018-Aug-06 12:30N 58°23' E 004°38'25120.4
2018-Aug-06 00:11N 54°28' E 007°20'416.5
2018-Aug-05 23:58N 54°25' E 007°23'816.7
2018-Aug-05 23:30N 54°18' E 007°31'817.0
2018-Aug-05 23:00N 54°11' E 007°39'917.2
2018-Aug-05 22:30N 54°07' E 007°51'917.5
2018-Aug-05 22:00N 54°02' E 008°03'714.6
2018-Aug-05 21:30N 54°00' E 008°16'917.7
2018-Aug-05 21:00N 53°58' E 008°30'816.7
2018-Aug-05 20:30N 53°54' E 008°42'713.7
2018-Aug-05 20:00N 53°50' E 008°52'815.1
2018-Aug-05 19:30N 53°52' E 009°05'5 9.7
2018-Aug-05 19:00N 53°53' E 009°13'611.8
2018-Aug-05 18:30N 53°50' E 009°21'510.9
2018-Aug-05 18:00N 53°45' E 009°25'5 9.1
2018-Aug-05 17:30N 53°41' E 009°30'4 8.8
2018-Aug-05 17:00N 53°37' E 009°33'5 9.6
2018-Aug-05 16:30N 53°34' E 009°39'4 9.0
2018-Aug-05 16:00N 53°34' E 009°46'4 8.9
2018-Aug-05 15:30N 53°33' E 009°54'2 4.5
2018-Aug-05 14:58N 53°32' E 009°58'0 0.0
2018-Aug-05 14:28N 53°32' E 009°58'0 0.0
2018-Aug-05 13:25N 53°32' E 009°58'0 0.0
2018-Aug-05 12:58N 53°32' E 009°58'0 0.0
2018-Aug-05 12:28N 53°32' E 009°58'0 0.0
2018-Aug-05 11:58N 53°32' E 009°58'0 0.0
2018-Aug-05 11:28N 53°32' E 009°58'0 0.0
2018-Aug-05 10:58N 53°32' E 009°58'0 0.0
2018-Aug-05 10:28N 53°32' E 009°58'0 0.0
2018-Aug-05 09:58N 53°32' E 009°58'0 0.0
2018-Aug-05 09:28N 53°32' E 009°58'0 0.0
2018-Aug-05 08:58N 53°32' E 009°58'0 0.0
2018-Aug-05 08:28N 53°32' E 009°58'0 0.0
2018-Aug-05 07:58N 53°32' E 009°58'0 0.0
2018-Aug-05 07:28N 53°32' E 009°58'0 0.0
2018-Aug-05 06:58N 53°32' E 009°58'0 0.0
2018-Aug-05 06:28N 53°32' E 009°58'0 0.0
2018-Aug-05 05:58N 53°32' E 009°58'0 0.0
2018-Aug-05 05:28N 53°32' E 009°58'0 0.0
2018-Aug-05 04:58N 53°32' E 009°58'0 0.0
2018-Aug-05 04:28N 53°32' E 009°58'0 0.0
2018-Aug-05 03:59N 53°32' E 009°58'1 1.7
2018-Aug-05 03:30N 53°33' E 009°57'3 6.9
2018-Aug-05 03:01N 53°33' E 009°51'5 9.7
2018-Aug-05 02:30N 53°34' E 009°43'611.1
2018-Aug-05 02:00N 53°36' E 009°35'611.1
2018-Aug-05 01:30N 53°41' E 009°30'511.0
2018-Aug-05 01:00N 53°45' E 009°24'612.6
2018-Aug-05 00:30N 53°51' E 009°19'612.3
2018-Aug-05 00:00N 53°53' E 009°09'510.2
2018-Aug-04 23:30N 53°51' E 009°01'612.6
2018-Aug-04 23:00N 53°50' E 008°50'611.8
2018-Aug-04 22:30N 53°54' E 008°42'714.4
2018-Aug-04 22:00N 53°58' E 008°32'917.1
2018-Aug-04 21:30N 53°60' E 008°18'612.7
2018-Aug-04 21:01N 53°60' E 008°07'815.5
2018-Aug-04 20:30N 54°02' E 007°55'816.2
2018-Aug-04 20:00N 54°07' E 007°43'815.9
2018-Aug-04 19:31N 54°12' E 007°34'816.3
2018-Aug-04 19:00N 54°19' E 007°26'  

Dump ship's entire track history